sensor_id;sensor_type;location;lat;lon;timestamp;pressure;altitude;pressure_sealevel;temperature;humidity
76746;BME280;65671;49.976;20.038;2023-12-14T00:02:03;96515.59;;;3.09;100.00
76746;BME280;65671;49.976;20.038;2023-12-14T00:04:28;96512.09;;;2.91;100.00
76746;BME280;65671;49.976;20.038;2023-12-14T00:06:54;96508.28;;;2.92;100.00
76746;BME280;65671;49.976;20.038;2023-12-14T00:09:19;96518.28;;;3.16;100.00
76746;BME280;65671;49.976;20.038;2023-12-14T00:11:45;96514.84;;;3.22;100.00
76746;BME280;65671;49.976;20.038;2023-12-14T00:14:10;96525.94;;;3.17;100.00
76746;BME280;65671;49.976;20.038;2023-12-14T00:16:36;96518.22;;;2.98;100.00
76746;BME280;65671;49.976;20.038;2023-12-14T00:19:01;96525.91;;;3.10;100.00
76746;BME280;65671;49.976;20.038;2023-12-14T00:21:27;96523.97;;;3.07;100.00
76746;BME280;65671;49.976;20.038;2023-12-14T00:23:53;96533.53;;;2.98;100.00
76746;BME280;65671;49.976;20.038;2023-12-14T00:26:18;96535.00;;;2.88;100.00
76746;BME280;65671;49.976;20.038;2023-12-14T00:28:44;96543.75;;;2.74;100.00
76746;BME280;65671;49.976;20.038;2023-12-14T00:31:09;96535.78;;;2.89;100.00
76746;BME280;65671;49.976;20.038;2023-12-14T00:33:35;96538.88;;;3.05;100.00
76746;BME280;65671;49.976;20.038;2023-12-14T00:36:00;96543.13;;;3.13;100.00
76746;BME280;65671;49.976;20.038;2023-12-14T00:38:25;96544.69;;;3.35;100.00
76746;BME280;65671;49.976;20.038;2023-12-14T00:40:51;96540.88;;;3.36;100.00
76746;BME280;65671;49.976;20.038;2023-12-14T00:43:16;96545.78;;;3.20;100.00
76746;BME280;65671;49.976;20.038;2023-12-14T00:45:42;96538.91;;;3.19;100.00
76746;BME280;65671;49.976;20.038;2023-12-14T00:48:07;96542.28;;;2.98;100.00
76746;BME280;65671;49.976;20.038;2023-12-14T00:50:33;96546.16;;;3.15;100.00
76746;BME280;65671;49.976;20.038;2023-12-14T00:52:58;96550.78;;;3.32;100.00
76746;BME280;65671;49.976;20.038;2023-12-14T00:55:24;96551.13;;;3.09;100.00
76746;BME280;65671;49.976;20.038;2023-12-14T00:57:49;96561.41;;;3.00;100.00
76746;BME280;65671;49.976;20.038;2023-12-14T01:00:15;96560.19;;;2.87;100.00
76746;BME280;65671;49.976;20.038;2023-12-14T01:02:41;96558.78;;;3.14;100.00
76746;BME280;65671;49.976;20.038;2023-12-14T01:05:07;96565.94;;;2.86;100.00
76746;BME280;65671;49.976;20.038;2023-12-14T01:07:32;96566.31;;;2.88;100.00
76746;BME280;65671;49.976;20.038;2023-12-14T01:09:58;96567.03;;;2.77;100.00
76746;BME280;65671;49.976;20.038;2023-12-14T01:12:23;96566.63;;;2.75;100.00
76746;BME280;65671;49.976;20.038;2023-12-14T01:14:49;96563.19;;;2.75;100.00
76746;BME280;65671;49.976;20.038;2023-12-14T01:17:14;96572.72;;;2.72;100.00
76746;BME280;65671;49.976;20.038;2023-12-14T01:19:40;96570.13;;;2.83;100.00
76746;BME280;65671;49.976;20.038;2023-12-14T01:22:08;96566.31;;;2.88;100.00
76746;BME280;65671;49.976;20.038;2023-12-14T01:24:33;96574.28;;;2.80;100.00
76746;BME280;65671;49.976;20.038;2023-12-14T01:26:59;96572.38;;;2.77;100.00
76746;BME280;65671;49.976;20.038;2023-12-14T01:29:24;96571.59;;;2.73;100.00
76746;BME280;65671;49.976;20.038;2023-12-14T01:31:50;96572.78;;;2.87;100.00
76746;BME280;65671;49.976;20.038;2023-12-14T01:34:16;96561.00;;;3.02;100.00
76746;BME280;65671;49.976;20.038;2023-12-14T01:36:41;96555.97;;;2.83;100.00
76746;BME280;65671;49.976;20.038;2023-12-14T01:39:07;96562.16;;;3.04;100.00
76746;BME280;65671;49.976;20.038;2023-12-14T01:41:32;96572.06;;;2.93;100.00
76746;BME280;65671;49.976;20.038;2023-12-14T01:43:58;96571.31;;;3.00;100.00
76746;BME280;65671;49.976;20.038;2023-12-14T01:46:24;96576.63;;;2.89;100.00
76746;BME280;65671;49.976;20.038;2023-12-14T01:48:49;96568.97;;;2.84;100.00
76746;BME280;65671;49.976;20.038;2023-12-14T01:51:17;96570.13;;;2.90;100.00
76746;BME280;65671;49.976;20.038;2023-12-14T01:53:42;96560.25;;;2.98;100.00
76746;BME280;65671;49.976;20.038;2023-12-14T01:56:08;96573.19;;;2.85;100.00
76746;BME280;65671;49.976;20.038;2023-12-14T01:58:34;96571.97;;;2.72;100.00
76746;BME280;65671;49.976;20.038;2023-12-14T02:01:19;96575.06;;;2.85;100.00
76746;BME280;65671;49.976;20.038;2023-12-14T02:03:47;96566.41;;;3.09;100.00
76746;BME280;65671;49.976;20.038;2023-12-14T02:06:15;96566.78;;;3.14;100.00
76746;BME280;65671;49.976;20.038;2023-12-14T02:08:40;96567.94;;;3.10;100.00
76746;BME280;65671;49.976;20.038;2023-12-14T02:11:06;96569.13;;;3.26;100.00
76746;BME280;65671;49.976;20.038;2023-12-14T02:13:32;96568.38;;;3.29;100.00
76746;BME280;65671;49.976;20.038;2023-12-14T02:15:58;96565.69;;;3.26;100.00
76746;BME280;65671;49.976;20.038;2023-12-14T02:18:23;96568.38;;;3.29;100.00
76746;BME280;65671;49.976;20.038;2023-12-14T02:20:48;96574.91;;;3.39;100.00
76746;BME280;65671;49.976;20.038;2023-12-14T02:23:14;96581.00;;;3.39;100.00
76746;BME280;65671;49.976;20.038;2023-12-14T02:25:39;96574.88;;;3.35;100.00
76746;BME280;65671;49.976;20.038;2023-12-14T02:28:05;96577.19;;;3.33;100.00
76746;BME280;65671;49.976;20.038;2023-12-14T02:30:30;96577.50;;;3.25;100.00
76746;BME280;65671;49.976;20.038;2023-12-14T02:32:56;96585.53;;;3.18;100.00
76746;BME280;65671;49.976;20.038;2023-12-14T02:35:21;96590.88;;;3.25;100.00
76746;BME280;65671;49.976;20.038;2023-12-14T02:37:48;96597.06;;;3.36;100.00
76746;BME280;65671;49.976;20.038;2023-12-14T02:40:13;96597.78;;;3.26;100.00
76746;BME280;65671;49.976;20.038;2023-12-14T02:42:39;96601.59;;;3.28;100.00
76746;BME280;65671;49.976;20.038;2023-12-14T02:45:05;96600.06;;;3.24;100.00
76746;BME280;65671;49.976;20.038;2023-12-14T02:47:30;96609.94;;;3.06;100.00
76746;BME280;65671;49.976;20.038;2023-12-14T02:49:56;96609.88;;;2.99;100.00
76746;BME280;65671;49.976;20.038;2023-12-14T02:52:22;96617.47;;;2.86;100.00
76746;BME280;65671;49.976;20.038;2023-12-14T02:54:47;96614.03;;;2.86;100.00
76746;BME280;65671;49.976;20.038;2023-12-14T02:57:13;96620.66;;;3.09;100.00
76746;BME280;65671;49.976;20.038;2023-12-14T02:59:39;96621.47;;;3.31;100.00
76746;BME280;65671;49.976;20.038;2023-12-14T03:02:05;96620.66;;;3.13;100.00
76746;BME280;65671;49.976;20.038;2023-12-14T03:04:31;96618.31;;;3.01;100.00
76746;BME280;65671;49.976;20.038;2023-12-14T03:06:56;96627.94;;;3.16;100.00
76746;BME280;65671;49.976;20.038;2023-12-14T03:09:22;96627.25;;;3.40;100.00
76746;BME280;65671;49.976;20.038;2023-12-14T03:11:48;96631.50;;;3.48;100.00
76746;BME280;65671;49.976;20.038;2023-12-14T03:14:13;96630.72;;;3.48;100.00
76746;BME280;65671;49.976;20.038;2023-12-14T03:16:39;96632.22;;;3.38;100.00
76746;BME280;65671;49.976;20.038;2023-12-14T03:19:05;96637.97;;;3.36;100.00
76746;BME280;65671;49.976;20.038;2023-12-14T03:21:30;96646.75;;;3.41;100.00
76746;BME280;65671;49.976;20.038;2023-12-14T03:23:56;96643.31;;;3.36;100.00
76746;BME280;65671;49.976;20.038;2023-12-14T03:26:21;96645.09;;;3.11;100.00
76746;BME280;65671;49.976;20.038;2023-12-14T03:28:47;96648.19;;;3.17;100.00
76746;BME280;65671;49.976;20.038;2023-12-14T03:31:12;96645.50;;;3.17;100.00
76746;BME280;65671;49.976;20.038;2023-12-14T03:33:38;96649.00;;;3.24;100.00
76746;BME280;65671;49.976;20.038;2023-12-14T03:36:05;96650.47;;;3.22;100.00
76746;BME280;65671;49.976;20.038;2023-12-14T03:38:31;96651.69;;;3.35;100.00
76746;BME280;65671;49.976;20.038;2023-12-14T03:40:57;96659.69;;;3.28;100.00
76746;BME280;65671;49.976;20.038;2023-12-14T03:43:22;96662.81;;;3.44;100.00
76746;BME280;65671;49.976;20.038;2023-12-14T03:45:48;96665.00;;;3.17;100.00
76746;BME280;65671;49.976;20.038;2023-12-14T03:48:13;96666.56;;;3.25;100.00
76746;BME280;65671;49.976;20.038;2023-12-14T03:50:39;96668.84;;;3.23;100.00
76746;BME280;65671;49.976;20.038;2023-12-14T03:53:04;96670.13;;;2.78;100.00
76746;BME280;65671;49.976;20.038;2023-12-14T03:55:30;96675.97;;;2.98;100.00
76746;BME280;65671;49.976;20.038;2023-12-14T03:57:55;96679.75;;;2.90;100.00
76746;BME280;65671;49.976;20.038;2023-12-14T04:00:20;96691.78;;;3.24;100.00
76746;BME280;65671;49.976;20.038;2023-12-14T04:02:46;96693.69;;;3.24;100.00
76746;BME280;65671;49.976;20.038;2023-12-14T04:05:11;96699.75;;;3.17;100.00
76746;BME280;65671;49.976;20.038;2023-12-14T04:07:38;96703.84;;;2.97;100.00
76746;BME280;65671;49.976;20.038;2023-12-14T04:10:09;96698.88;;;2.96;100.00
76746;BME280;65671;49.976;20.038;2023-12-14T04:12:35;96705.00;;;3.00;100.00
76746;BME280;65671;49.976;20.038;2023-12-14T04:15:01;96714.88;;;2.89;100.00
76746;BME280;65671;49.976;20.038;2023-12-14T04:17:27;96728.00;;;3.11;100.00
76746;BME280;65671;49.976;20.038;2023-12-14T04:19:53;96717.72;;;3.17;100.00
76746;BME280;65671;49.976;20.038;2023-12-14T04:22:18;96726.56;;;3.31;100.00
76746;BME280;65671;49.976;20.038;2023-12-14T04:24:43;96726.97;;;3.30;100.00
76746;BME280;65671;49.976;20.038;2023-12-14T04:27:09;96733.94;;;3.45;100.00
76746;BME280;65671;49.976;20.038;2023-12-14T04:29:34;96737.34;;;3.46;100.00
76746;BME280;65671;49.976;20.038;2023-12-14T04:32:00;96741.22;;;3.55;100.00
76746;BME280;65671;49.976;20.038;2023-12-14T04:34:25;96745.81;;;3.51;100.00
76746;BME280;65671;49.976;20.038;2023-12-14T04:36:51;96745.75;;;3.44;100.00
76746;BME280;65671;49.976;20.038;2023-12-14T04:39:18;96745.28;;;3.28;100.00
76746;BME280;65671;49.976;20.038;2023-12-14T04:41:44;96743.00;;;3.30;100.00
76746;BME280;65671;49.976;20.038;2023-12-14T04:44:09;96742.97;;;3.23;100.00
76746;BME280;65671;49.976;20.038;2023-12-14T04:46:37;96743.97;;;2.97;100.00
76746;BME280;65671;49.976;20.038;2023-12-14T04:49:03;96751.72;;;3.13;100.00
76746;BME280;65671;49.976;20.038;2023-12-14T04:51:28;96758.72;;;3.35;100.00
76746;BME280;65671;49.976;20.038;2023-12-14T04:53:54;96757.63;;;3.47;100.00
76746;BME280;65671;49.976;20.038;2023-12-14T04:56:19;96772.06;;;3.31;100.00
76746;BME280;65671;49.976;20.038;2023-12-14T04:58:45;96767.22;;;2.93;100.00
76746;BME280;65671;49.976;20.038;2023-12-14T05:01:11;96771.66;;;3.26;100.00
76746;BME280;65671;49.976;20.038;2023-12-14T05:03:37;96781.16;;;3.20;100.00
76746;BME280;65671;49.976;20.038;2023-12-14T05:06:03;96775.09;;;3.26;100.00
76746;BME280;65671;49.976;20.038;2023-12-14T05:08:28;96784.31;;;3.36;100.00
76746;BME280;65671;49.976;20.038;2023-12-14T05:10:54;96784.00;;;3.45;100.00
76746;BME280;65671;49.976;20.038;2023-12-14T05:13:19;96782.75;;;3.31;100.00
76746;BME280;65671;49.976;20.038;2023-12-14T05:15:45;96781.84;;;3.06;100.00
76746;BME280;65671;49.976;20.038;2023-12-14T05:18:10;96777.28;;;3.14;100.00
76746;BME280;65671;49.976;20.038;2023-12-14T05:20:36;96779.75;;;2.82;100.00
76746;BME280;65671;49.976;20.038;2023-12-14T05:23:02;96791.97;;;2.83;100.00
76746;BME280;65671;49.976;20.038;2023-12-14T05:25:28;96799.63;;;2.85;100.00
76746;BME280;65671;49.976;20.038;2023-12-14T05:27:53;96802.91;;;2.67;100.00
76746;BME280;65671;49.976;20.038;2023-12-14T05:30:19;96801.84;;;2.79;100.00
76746;BME280;65671;49.976;20.038;2023-12-14T05:32:45;96798.72;;;2.70;100.00
76746;BME280;65671;49.976;20.038;2023-12-14T05:35:11;96802.31;;;2.88;100.00
76746;BME280;65671;49.976;20.038;2023-12-14T05:37:38;96805.06;;;2.99;100.00
76746;BME280;65671;49.976;20.038;2023-12-14T05:40:05;96810.38;;;2.92;100.00
76746;BME280;65671;49.976;20.038;2023-12-14T05:42:30;96819.59;;;3.01;100.00
76746;BME280;65671;49.976;20.038;2023-12-14T05:44:55;96824.88;;;2.91;100.00
76746;BME280;65671;49.976;20.038;2023-12-14T05:47:21;96829.66;;;2.71;100.00
76746;BME280;65671;49.976;20.038;2023-12-14T05:49:46;96830.56;;;2.86;100.00
76746;BME280;65671;49.976;20.038;2023-12-14T05:52:12;96830.69;;;3.00;100.00
76746;BME280;65671;49.976;20.038;2023-12-14T05:54:38;96849.03;;;3.05;100.00
76746;BME280;65671;49.976;20.038;2023-12-14T05:57:05;96840.53;;;2.89;100.00
76746;BME280;65671;49.976;20.038;2023-12-14T05:59:30;96854.50;;;3.15;100.00
76746;BME280;65671;49.976;20.038;2023-12-14T06:01:59;96850.75;;;3.27;100.00
76746;BME280;65671;49.976;20.038;2023-12-14T06:04:26;96855.09;;;2.95;100.00
76746;BME280;65671;49.976;20.038;2023-12-14T06:06:52;96864.16;;;2.87;100.00
76746;BME280;65671;49.976;20.038;2023-12-14T06:09:18;96860.19;;;2.70;100.00
76746;BME280;65671;49.976;20.038;2023-12-14T06:11:47;96865.34;;;2.93;100.00
76746;BME280;65671;49.976;20.038;2023-12-14T06:14:13;96871.22;;;3.05;100.00
76746;BME280;65671;49.976;20.038;2023-12-14T06:16:38;96873.38;;;2.93;100.00
76746;BME280;65671;49.976;20.038;2023-12-14T06:19:04;96882.22;;;2.97;100.00
76746;BME280;65671;49.976;20.038;2023-12-14T06:21:29;96878.72;;;2.89;100.00
76746;BME280;65671;49.976;20.038;2023-12-14T06:23:56;96869.22;;;2.95;100.00
76746;BME280;65671;49.976;20.038;2023-12-14T06:26:22;96874.28;;;3.07;100.00
76746;BME280;65671;49.976;20.038;2023-12-14T06:28:47;96886.69;;;3.29;100.00
76746;BME280;65671;49.976;20.038;2023-12-14T06:31:14;96887.47;;;2.90;100.00
76746;BME280;65671;49.976;20.038;2023-12-14T06:33:39;96886.28;;;3.24;100.00
76746;BME280;65671;49.976;20.038;2023-12-14T06:36:07;96884.41;;;2.88;100.00
76746;BME280;65671;49.976;20.038;2023-12-14T06:38:33;96893.38;;;2.69;100.00
76746;BME280;65671;49.976;20.038;2023-12-14T06:40:58;96892.25;;;2.70;100.00
76746;BME280;65671;49.976;20.038;2023-12-14T06:43:24;96896.97;;;2.80;100.00
76746;BME280;65671;49.976;20.038;2023-12-14T06:45:49;96900.59;;;3.02;100.00
76746;BME280;65671;49.976;20.038;2023-12-14T06:48:15;96914.94;;;2.87;100.00
76746;BME280;65671;49.976;20.038;2023-12-14T06:50:40;96920.53;;;2.71;100.00
76746;BME280;65671;49.976;20.038;2023-12-14T06:53:06;96921.75;;;2.80;100.00
76746;BME280;65671;49.976;20.038;2023-12-14T06:55:31;96922.13;;;3.16;100.00
76746;BME280;65671;49.976;20.038;2023-12-14T06:57:57;96926.63;;;3.08;100.00
76746;BME280;65671;49.976;20.038;2023-12-14T07:00:22;96926.94;;;3.00;100.00
76746;BME280;65671;49.976;20.038;2023-12-14T07:02:48;96935.81;;;3.11;100.00
76746;BME280;65671;49.976;20.038;2023-12-14T07:05:13;96931.13;;;2.97;100.00
76746;BME280;65671;49.976;20.038;2023-12-14T07:07:40;96937.84;;;3.21;100.00
76746;BME280;65671;49.976;20.038;2023-12-14T07:10:06;96941.13;;;3.04;100.00
76746;BME280;65671;49.976;20.038;2023-12-14T07:12:32;96942.34;;;3.13;100.00
76746;BME280;65671;49.976;20.038;2023-12-14T07:14:57;96939.56;;;3.03;100.00
76746;BME280;65671;49.976;20.038;2023-12-14T07:17:23;96947.31;;;3.15;100.00
76746;BME280;65671;49.976;20.038;2023-12-14T07:19:50;96948.41;;;3.10;100.00
76746;BME280;65671;49.976;20.038;2023-12-14T07:22:16;96955.78;;;3.20;100.00
76746;BME280;65671;49.976;20.038;2023-12-14T07:24:41;96957.91;;;3.04;100.00
76746;BME280;65671;49.976;20.038;2023-12-14T07:27:07;96961.41;;;3.08;100.00
76746;BME280;65671;49.976;20.038;2023-12-14T07:29:32;96968.38;;;3.20;100.00
76746;BME280;65671;49.976;20.038;2023-12-14T07:31:58;96971.75;;;3.13;100.00
76746;BME280;65671;49.976;20.038;2023-12-14T07:34:23;96972.25;;;3.26;100.00
76746;BME280;65671;49.976;20.038;2023-12-14T07:36:50;96979.56;;;3.29;100.00
76746;BME280;65671;49.976;20.038;2023-12-14T07:39:15;96991.09;;;3.00;100.00
76746;BME280;65671;49.976;20.038;2023-12-14T07:41:41;96992.91;;;2.89;100.00
76746;BME280;65671;49.976;20.038;2023-12-14T07:44:06;96993.25;;;2.87;100.00
76746;BME280;65671;49.976;20.038;2023-12-14T07:46:32;96988.56;;;2.77;100.00
76746;BME280;65671;49.976;20.038;2023-12-14T07:48:57;97001.31;;;2.91;100.00
76746;BME280;65671;49.976;20.038;2023-12-14T07:51:24;97002.09;;;2.91;100.00
76746;BME280;65671;49.976;20.038;2023-12-14T07:53:49;97004.88;;;2.68;100.00
76746;BME280;65671;49.976;20.038;2023-12-14T07:56:15;97004.88;;;2.68;100.00
76746;BME280;65671;49.976;20.038;2023-12-14T07:58:40;97002.03;;;2.88;100.00
76746;BME280;65671;49.976;20.038;2023-12-14T08:01:06;97012.97;;;2.75;100.00
76746;BME280;65671;49.976;20.038;2023-12-14T08:03:31;97021.94;;;2.60;100.00
76746;BME280;65671;49.976;20.038;2023-12-14T08:05:57;97022.22;;;2.81;100.00
76746;BME280;65671;49.976;20.038;2023-12-14T08:08:22;97025.66;;;2.82;100.00
76746;BME280;65671;49.976;20.038;2023-12-14T08:10:48;97018.00;;;2.80;100.00
76746;BME280;65671;49.976;20.038;2023-12-14T08:13:13;97029.38;;;3.07;100.00
76746;BME280;65671;49.976;20.038;2023-12-14T08:15:39;97030.63;;;3.17;100.00
76746;BME280;65671;49.976;20.038;2023-12-14T08:18:04;97039.81;;;3.16;100.00
76746;BME280;65671;49.976;20.038;2023-12-14T08:20:29;97036.94;;;3.35;100.00
76746;BME280;65671;49.976;20.038;2023-12-14T08:22:55;97044.38;;;3.15;100.00
76746;BME280;65671;49.976;20.038;2023-12-14T08:25:21;97046.78;;;3.24;100.00
76746;BME280;65671;49.976;20.038;2023-12-14T08:27:46;97051.78;;;3.29;100.00
76746;BME280;65671;49.976;20.038;2023-12-14T08:30:12;97053.63;;;3.25;100.00
76746;BME280;65671;49.976;20.038;2023-12-14T08:32:38;97059.81;;;3.29;100.00
76746;BME280;65671;49.976;20.038;2023-12-14T08:35:04;97060.91;;;3.24;100.00
76746;BME280;65671;49.976;20.038;2023-12-14T08:37:29;97055.75;;;3.42;100.00
76746;BME280;65671;49.976;20.038;2023-12-14T08:39:55;97070.50;;;3.29;100.00
76746;BME280;65671;49.976;20.038;2023-12-14T08:42:21;97078.97;;;3.34;100.00
76746;BME280;65671;49.976;20.038;2023-12-14T08:44:47;97077.16;;;3.46;100.00
76746;BME280;65671;49.976;20.038;2023-12-14T08:47:12;97076.31;;;3.34;100.00
76746;BME280;65671;49.976;20.038;2023-12-14T08:49:38;97091.09;;;3.25;100.00
76746;BME280;65671;49.976;20.038;2023-12-14T08:52:03;97101.31;;;3.16;100.00
76746;BME280;65671;49.976;20.038;2023-12-14T08:54:32;97099.44;;;3.20;100.00
76746;BME280;65671;49.976;20.038;2023-12-14T08:56:57;97108.97;;;3.17;100.00
76746;BME280;65671;49.976;20.038;2023-12-14T08:59:23;97097.34;;;3.36;100.00
76746;BME280;65671;49.976;20.038;2023-12-14T09:01:49;97104.78;;;3.53;100.00
76746;BME280;65671;49.976;20.038;2023-12-14T09:04:15;97119.84;;;3.31;100.00
76746;BME280;65671;49.976;20.038;2023-12-14T09:06:40;97116.94;;;3.14;100.00
76746;BME280;65671;49.976;20.038;2023-12-14T09:09:10;97124.56;;;3.42;100.00
76746;BME280;65671;49.976;20.038;2023-12-14T09:11:36;97118.41;;;3.41;100.00
76746;BME280;65671;49.976;20.038;2023-12-14T09:14:02;97127.03;;;3.24;100.00
76746;BME280;65671;49.976;20.038;2023-12-14T09:16:28;97132.81;;;3.29;100.00
76746;BME280;65671;49.976;20.038;2023-12-14T09:18:53;97124.50;;;3.38;100.00
76746;BME280;65671;49.976;20.038;2023-12-14T09:21:19;97122.94;;;3.37;100.00
76746;BME280;65671;49.976;20.038;2023-12-14T09:23:44;97131.81;;;3.41;100.00
76746;BME280;65671;49.976;20.038;2023-12-14T09:26:14;97127.63;;;3.44;100.00
76746;BME280;65671;49.976;20.038;2023-12-14T09:28:39;97128.31;;;3.37;100.00
76746;BME280;65671;49.976;20.038;2023-12-14T09:31:05;97140.88;;;3.33;100.00
76746;BME280;65671;49.976;20.038;2023-12-14T09:33:31;97138.59;;;3.35;100.00
76746;BME280;65671;49.976;20.038;2023-12-14T09:35:56;97145.31;;;3.22;100.00
76746;BME280;65671;49.976;20.038;2023-12-14T09:38:22;97145.81;;;3.31;100.00
76746;BME280;65671;49.976;20.038;2023-12-14T09:40:47;97154.03;;;3.45;100.00
76746;BME280;65671;49.976;20.038;2023-12-14T09:43:13;97148.97;;;3.36;100.00
76746;BME280;65671;49.976;20.038;2023-12-14T09:45:40;97152.31;;;3.30;100.00
76746;BME280;65671;49.976;20.038;2023-12-14T09:48:10;97151.09;;;3.24;100.00
76746;BME280;65671;49.976;20.038;2023-12-14T09:50:39;97153.75;;;3.54;100.00
76746;BME280;65671;49.976;20.038;2023-12-14T09:53:05;97148.88;;;3.66;100.00
76746;BME280;65671;49.976;20.038;2023-12-14T09:55:33;97156.84;;;3.59;100.00
76746;BME280;65671;49.976;20.038;2023-12-14T09:57:59;97158.81;;;3.62;100.00
76746;BME280;65671;49.976;20.038;2023-12-14T10:00:40;97133.63;;;3.33;100.00
76746;BME280;65671;49.976;20.038;2023-12-14T10:03:24;97155.44;;;3.69;100.00
76746;BME280;65671;49.976;20.038;2023-12-14T10:05:52;97150.53;;;3.78;100.00
76746;BME280;65671;49.976;20.038;2023-12-14T10:08:18;97156.31;;;3.80;100.00
76746;BME280;65671;49.976;20.038;2023-12-14T10:10:47;97152.56;;;3.88;100.00
76746;BME280;65671;49.976;20.038;2023-12-14T10:13:43;97162.53;;;3.91;100.00
76746;BME280;65671;49.976;20.038;2023-12-14T10:16:08;97168.03;;;4.05;100.00
76746;BME280;65671;49.976;20.038;2023-12-14T10:18:34;97166.81;;;3.96;100.00
76746;BME280;65671;49.976;20.038;2023-12-14T10:21:00;97169.53;;;4.03;100.00
76746;BME280;65671;49.976;20.038;2023-12-14T10:23:27;97174.84;;;3.99;100.00
76746;BME280;65671;49.976;20.038;2023-12-14T10:25:54;97174.38;;;4.27;100.00
76746;BME280;65671;49.976;20.038;2023-12-14T10:28:20;97177.53;;;4.39;100.00
76746;BME280;65671;49.976;20.038;2023-12-14T10:30:47;97177.63;;;4.50;100.00
76746;BME280;65671;49.976;20.038;2023-12-14T10:33:12;97180.69;;;4.48;100.00
76746;BME280;65671;49.976;20.038;2023-12-14T10:35:39;97181.03;;;4.47;100.00
76746;BME280;65671;49.976;20.038;2023-12-14T10:38:07;97181.50;;;4.56;100.00
76746;BME280;65671;49.976;20.038;2023-12-14T10:40:35;97174.13;;;4.46;100.00
76746;BME280;65671;49.976;20.038;2023-12-14T10:43:10;97185.91;;;4.34;100.00
76746;BME280;65671;49.976;20.038;2023-12-14T10:45:38;97186.56;;;4.21;100.00
76746;BME280;65671;49.976;20.038;2023-12-14T10:48:04;97201.50;;;4.22;100.00
76746;BME280;65671;49.976;20.038;2023-12-14T10:50:30;97194.41;;;4.03;100.00
76746;BME280;65671;49.976;20.038;2023-12-14T10:52:59;97195.59;;;4.06;100.00
76746;BME280;65671;49.976;20.038;2023-12-14T10:55:43;97207.09;;;4.06;100.00
76746;BME280;65671;49.976;20.038;2023-12-14T10:58:10;97207.59;;;4.19;100.00
76746;BME280;65671;49.976;20.038;2023-12-14T11:00:37;97215.41;;;3.98;100.00
76746;BME280;65671;49.976;20.038;2023-12-14T11:03:15;97207.22;;;3.83;100.00
76746;BME280;65671;49.976;20.038;2023-12-14T11:05:40;97210.94;;;4.09;100.00
76746;BME280;65671;49.976;20.038;2023-12-14T11:08:06;97204.38;;;4.03;100.00
76746;BME280;65671;49.976;20.038;2023-12-14T11:10:40;97220.56;;;4.13;100.00
76746;BME280;65671;49.976;20.038;2023-12-14T11:13:07;97209.53;;;4.22;100.00
76746;BME280;65671;49.976;20.038;2023-12-14T11:15:37;97227.00;;;3.75;100.00
76746;BME280;65671;49.976;20.038;2023-12-14T11:25:58;97226.06;;;3.57;100.00
76746;BME280;65671;49.976;20.038;2023-12-14T11:28:24;97229.06;;;3.56;100.00
76746;BME280;65671;49.976;20.038;2023-12-14T11:30:49;97229.97;;;3.37;100.00
76746;BME280;65671;49.976;20.038;2023-12-14T11:33:16;97230.25;;;3.28;100.00
76746;BME280;65671;49.976;20.038;2023-12-14T11:35:42;97232.66;;;3.37;100.00
76746;BME280;65671;49.976;20.038;2023-12-14T11:38:07;97234.44;;;3.56;100.00
76746;BME280;65671;49.976;20.038;2023-12-14T11:40:44;97238.09;;;3.44;100.00
76746;BME280;65671;49.976;20.038;2023-12-14T11:43:10;97233.09;;;3.39;100.00
76746;BME280;65671;49.976;20.038;2023-12-14T11:45:37;97234.19;;;3.38;100.00
76746;BME280;65671;49.976;20.038;2023-12-14T11:48:04;97233.31;;;3.60;100.00
76746;BME280;65671;49.976;20.038;2023-12-14T11:50:32;97234.53;;;3.63;100.00
76746;BME280;65671;49.976;20.038;2023-12-14T11:53:00;97236.53;;;3.73;100.00
76746;BME280;65671;49.976;20.038;2023-12-14T11:55:37;97241.31;;;3.86;100.00
76746;BME280;65671;49.976;20.038;2023-12-14T11:58:16;97237.97;;;3.97;100.00
76746;BME280;65671;49.976;20.038;2023-12-14T12:00:42;97247.63;;;4.05;100.00
76746;BME280;65671;49.976;20.038;2023-12-14T12:03:20;97248.13;;;4.17;100.00
76746;BME280;65671;49.976;20.038;2023-12-14T12:05:51;97256.63;;;4.23;100.00
76746;BME280;65671;49.976;20.038;2023-12-14T12:08:24;97254.66;;;4.20;100.00
76746;BME280;65671;49.976;20.038;2023-12-14T12:10:50;97259.81;;;4.35;100.00
76746;BME280;65671;49.976;20.038;2023-12-14T12:13:18;97263.66;;;4.38;100.00
76746;BME280;65671;49.976;20.038;2023-12-14T12:15:50;97267.81;;;4.32;100.00
76746;BME280;65671;49.976;20.038;2023-12-14T12:18:25;97275.53;;;4.37;100.00
76746;BME280;65671;49.976;20.038;2023-12-14T12:20:51;97284.31;;;4.34;100.00
76746;BME280;65671;49.976;20.038;2023-12-14T12:23:30;97283.09;;;4.31;100.00
76746;BME280;65671;49.976;20.038;2023-12-14T12:25:56;97284.75;;;4.43;100.00
76746;BME280;65671;49.976;20.038;2023-12-14T12:28:22;97282.81;;;4.36;100.00
76746;BME280;65671;49.976;20.038;2023-12-14T12:30:48;97287.00;;;4.37;100.00
76746;BME280;65671;49.976;20.038;2023-12-14T12:33:13;97291.63;;;4.37;100.00
76746;BME280;65671;49.976;20.038;2023-12-14T12:35:39;97289.34;;;4.39;100.00
76746;BME280;65671;49.976;20.038;2023-12-14T12:38:05;97291.19;;;4.35;100.00
76746;BME280;65671;49.976;20.038;2023-12-14T12:40:31;97292.16;;;4.16;100.00
76746;BME280;65671;49.976;20.038;2023-12-14T12:42:59;97289.66;;;4.34;100.00
76746;BME280;65671;49.976;20.038;2023-12-14T12:45:25;97295.03;;;4.34;100.00
76746;BME280;65671;49.976;20.038;2023-12-14T12:47:54;97303.13;;;4.41;100.00
76746;BME280;65671;49.976;20.038;2023-12-14T12:50:20;97310.19;;;4.56;100.00
76746;BME280;65671;49.976;20.038;2023-12-14T12:52:46;97303.94;;;4.45;100.00
76746;BME280;65671;49.976;20.038;2023-12-14T12:55:14;97307.88;;;4.58;100.00